Time;durP1;ratioP1;P1;durP2;ratioP2;P2;SDS_P1;SDS_P2;PMS_P1;PMS_P2;Temp;Humidity;BMP_temperature;BMP_pressure;BME280_temperature;BME280_humidity;BME280_pressure;Samples;Min_cycle;Max_cycle;Signal;HPM_P1;HPM_P2
2021/12/21 00:01:16;;;;;;;83.30;20.45;;;-1.00;99.90;;;;;;6127673;23;20174;-84
2021/12/21 00:03:42;;;;;;;80.78;20.13;;;-1.00;99.90;;;;;;6127537;23;20199;-83
2021/12/21 00:06:10;;;;;;;78.80;23.13;;;-1.00;99.90;;;;;;6128091;23;20592;-83
2021/12/21 00:08:37;;;;;;;78.72;18.25;;;-1.10;99.90;;;;;;6127460;23;20607;-83
2021/12/21 00:11:05;;;;;;;81.05;21.50;;;-1.10;99.90;;;;;;6127568;23;20171;-82
2021/12/21 00:17:08;;;;;;;83.47;21.37;;;-1.10;99.90;;;;;;6128335;23;20173;-84
2021/12/21 00:21:55;;;;;;;76.80;18.98;;;-1.20;99.90;;;;;;6138410;23;20162;-84
2021/12/21 00:24:34;;;;;;;85.65;20.38;;;-1.20;99.90;;;;;;6128257;23;20162;-84
2021/12/21 00:27:09;;;;;;;79.97;17.50;;;-1.30;99.90;;;;;;6128394;23;20180;-85
2021/12/21 00:29:35;;;;;;;78.43;16.02;;;-1.30;99.90;;;;;;6128789;23;20123;-84
2021/12/21 00:32:07;;;;;;;79.77;21.87;;;-1.30;99.90;;;;;;6127976;23;20608;-84
2021/12/21 00:34:35;;;;;;;82.75;22.92;;;-1.30;99.90;;;;;;6128390;23;20387;-84
2021/12/21 00:37:12;;;;;;;79.45;18.20;;;-1.20;99.90;;;;;;6103074;23;20238;-84
2021/12/21 00:39:38;;;;;;;77.82;18.35;;;-1.30;99.90;;;;;;6102322;23;20158;-84
2021/12/21 00:42:11;;;;;;;74.35;17.83;;;-1.30;99.90;;;;;;6101614;23;20190;-84
2021/12/21 00:44:46;;;;;;;81.45;19.48;;;-1.30;99.90;;;;;;6127374;23;20159;-84
2021/12/21 00:47:14;;;;;;;75.90;18.15;;;-1.30;99.90;;;;;;6102144;23;20172;-85
2021/12/21 00:49:44;;;;;;;80.60;23.67;;;-1.40;99.90;;;;;;6127604;23;20573;-84
2021/12/21 00:52:28;;;;;;;78.97;20.08;;;-1.40;99.90;;;;;;6101199;23;20522;-85
2021/12/21 00:54:54;;;;;;;76.53;19.15;;;-1.40;99.90;;;;;;6127359;23;20189;-85
2021/12/21 00:57:26;;;;;;;78.20;22.88;;;-1.40;99.90;;;;;;6100893;23;20155;-84
2021/12/21 00:59:54;;;;;;;80.07;20.85;;;-1.40;99.90;;;;;;6127730;23;20143;-83
2021/12/21 01:02:20;;;;;;;78.60;20.25;;;-1.40;99.90;;;;;;6126867;23;20231;-83
2021/12/21 01:04:50;;;;;;;77.00;17.07;;;-1.40;99.90;;;;;;6127399;23;20178;-83
2021/12/21 01:07:23;;;;;;;77.78;17.45;;;-1.40;99.90;;;;;;6126876;23;20528;-83
2021/12/21 01:12:56;;;;;;;75.15;17.98;;;-1.40;99.90;;;;;;6072798;23;20210;-83
2021/12/21 01:15:59;;;;;;;76.25;15.50;;;-1.50;99.90;;;;;;6126060;23;20139;-84
2021/12/21 01:18:34;;;;;;;76.97;16.10;;;-1.50;99.90;;;;;;6126393;23;20138;-84
2021/12/21 01:26:51;;;;;;;77.40;21.20;;;-1.50;99.90;;;;;;6136340;23;20135;-85
2021/12/21 01:29:49;;;;;;;75.65;17.83;;;-1.60;99.90;;;;;;6126258;23;20487;-83
2021/12/21 01:34:50;;;;;;;81.50;16.25;;;-1.50;99.90;;;;;;6126223;23;20239;-84
2021/12/21 01:40:15;;;;;;;78.20;19.00;;;-1.70;99.90;;;;;;6136351;23;20138;-84
2021/12/21 01:51:40;;;;;;;75.35;18.52;;;-1.60;99.90;;;;;;6038502;23;20152;-84
2021/12/21 01:54:11;;;;;;;75.60;15.73;;;-1.60;99.90;;;;;;6113853;23;20226;-84
2021/12/21 01:56:50;;;;;;;78.93;17.27;;;-1.70;99.90;;;;;;6126772;23;20151;-85
2021/12/21 01:59:19;;;;;;;76.05;16.67;;;-1.70;99.90;;;;;;6127104;23;20149;-85
2021/12/21 02:01:52;;;;;;;78.85;18.42;;;-1.60;99.90;;;;;;6126850;23;20166;-85
2021/12/21 02:04:21;;;;;;;77.22;19.33;;;-1.60;99.90;;;;;;6126609;23;20169;-85
2021/12/21 02:06:52;;;;;;;80.70;18.05;;;-1.60;99.90;;;;;;6127486;23;20170;-86
2021/12/21 02:09:37;;;;;;;75.38;15.55;;;-1.60;99.90;;;;;;6127602;23;20198;-85
2021/12/21 02:12:10;;;;;;;77.97;18.50;;;-1.60;99.90;;;;;;6127182;23;20127;-85
2021/12/21 02:14:36;;;;;;;76.15;18.90;;;-1.70;99.90;;;;;;6101681;23;20175;-86
2021/12/21 02:20:22;;;;;;;83.28;18.63;;;-1.70;99.90;;;;;;6106499;23;20633;-85
2021/12/21 02:23:00;;;;;;;74.70;17.98;;;-1.70;99.90;;;;;;6101617;23;20178;-84
2021/12/21 02:31:03;;;;;;;79.03;18.67;;;-1.80;99.90;;;;;;6078252;23;20169;-85
2021/12/21 02:33:37;;;;;;;78.78;22.45;;;-1.80;99.90;;;;;;6126898;23;20584;-86
2021/12/21 02:36:05;;;;;;;76.13;18.38;;;-1.90;99.90;;;;;;6126959;23;20656;-86
2021/12/21 02:38:46;;;;;;;85.40;19.38;;;-1.90;99.90;;;;;;6126672;23;20143;-85
2021/12/21 02:41:14;;;;;;;79.82;17.80;;;-1.90;99.90;;;;;;6100851;23;20212;-85
2021/12/21 02:43:54;;;;;;;75.10;16.42;;;-1.90;99.90;;;;;;6100599;23;20194;-85
2021/12/21 02:46:23;;;;;;;77.20;18.85;;;-1.90;99.90;;;;;;6100312;23;20147;-86
2021/12/21 02:49:09;;;;;;;75.38;16.63;;;-1.90;99.90;;;;;;6126517;23;20548;-84
2021/12/21 02:51:41;;;;;;;74.57;16.50;;;-2.00;99.90;;;;;;6098983;23;20162;-84
2021/12/21 02:54:18;;;;;;;76.28;16.50;;;-2.00;99.90;;;;;;6125091;23;20557;-84
2021/12/21 02:56:44;;;;;;;77.95;17.63;;;-2.00;99.90;;;;;;6100111;23;20162;-85
2021/12/21 02:59:18;;;;;;;77.38;17.08;;;-2.00;99.90;;;;;;6124865;23;20166;-84
2021/12/21 03:01:46;;;;;;;74.30;19.23;;;-2.00;99.90;;;;;;6099523;23;20175;-85
2021/12/21 03:04:21;;;;;;;79.78;17.92;;;-2.00;99.90;;;;;;6098787;23;20200;-84
2021/12/21 03:12:09;;;;;;;74.72;18.35;;;-1.90;99.90;;;;;;6135917;23;20141;-86
2021/12/21 03:14:38;;;;;;;75.50;17.40;;;-2.00;99.90;;;;;;6125638;23;20254;-86
2021/12/21 03:17:07;;;;;;;74.57;16.55;;;-2.00;99.90;;;;;;6125854;23;20145;-85
2021/12/21 03:19:33;;;;;;;77.03;18.52;;;-2.00;99.90;;;;;;6125890;23;20147;-86
2021/12/21 03:22:03;;;;;;;79.63;16.30;;;-2.00;99.90;;;;;;6099427;23;20186;-84
2021/12/21 03:24:29;;;;;;;76.80;17.73;;;-2.00;99.90;;;;;;6099088;23;20853;-85
2021/12/21 03:27:11;;;;;;;80.13;18.20;;;-2.00;99.90;;;;;;6099339;23;20150;-85
2021/12/21 03:29:40;;;;;;;73.63;16.27;;;-2.00;99.90;;;;;;6099234;23;20371;-86
2021/12/21 03:32:09;;;;;;;74.45;16.48;;;-2.00;99.90;;;;;;6099643;23;20150;-86
2021/12/21 03:34:40;;;;;;;76.65;16.85;;;-2.20;99.90;;;;;;6098774;23;20175;-85
2021/12/21 03:37:13;;;;;;;73.85;15.85;;;-2.20;99.90;;;;;;6100589;23;20203;-84
2021/12/21 03:39:44;;;;;;;74.60;17.30;;;-2.20;99.90;;;;;;6100989;23;20670;-86
2021/12/21 03:42:20;;;;;;;78.57;19.60;;;-2.20;99.90;;;;;;6101097;23;20574;-85
2021/12/21 03:44:51;;;;;;;77.70;16.05;;;-2.30;99.90;;;;;;6101394;23;20499;-86
2021/12/21 03:47:38;;;;;;;73.68;17.58;;;-2.30;99.90;;;;;;6126596;23;20147;-86
2021/12/21 03:50:17;;;;;;;76.68;17.60;;;-2.30;99.90;;;;;;6128446;23;20142;-86
2021/12/21 03:52:43;;;;;;;76.75;15.07;;;-2.30;99.90;;;;;;6128586;23;20214;-86
2021/12/21 03:55:15;;;;;;;78.10;20.20;;;-2.30;99.90;;;;;;6128327;23;20147;-86
2021/12/21 03:57:41;;;;;;;75.97;18.77;;;-2.30;99.90;;;;;;6103238;23;20202;-86
2021/12/21 04:00:13;;;;;;;75.97;17.33;;;-2.30;99.90;;;;;;6101783;23;20147;-86
2021/12/21 04:02:42;;;;;;;76.43;17.30;;;-2.40;99.90;;;;;;6100903;23;20410;-86
2021/12/21 04:05:17;;;;;;;74.47;17.33;;;-2.40;99.90;;;;;;6127600;23;20473;-86
2021/12/21 04:07:46;;;;;;;75.95;17.63;;;-2.40;99.90;;;;;;6127975;23;20154;-85
2021/12/21 04:10:12;;;;;;;73.82;16.27;;;-2.40;99.90;;;;;;6126581;23;20143;-85
2021/12/21 04:12:41;;;;;;;74.80;15.90;;;-2.40;99.90;;;;;;6127394;23;20174;-85
2021/12/21 04:15:17;;;;;;;80.97;17.50;;;-2.40;99.90;;;;;;6126454;23;20700;-86
2021/12/21 04:17:45;;;;;;;83.20;16.80;;;-2.40;99.90;;;;;;6127880;23;20209;-85
2021/12/21 04:20:14;;;;;;;74.22;15.38;;;-2.40;99.90;;;;;;6126305;23;20146;-86
2021/12/21 04:22:39;;;;;;;76.10;15.30;;;-2.50;99.90;;;;;;6100797;23;20244;-86
2021/12/21 04:25:06;;;;;;;74.90;15.10;;;-2.50;99.90;;;;;;6096181;23;20598;-85
2021/12/21 04:27:34;;;;;;;74.25;16.42;;;-2.50;99.90;;;;;;6126979;23;20593;-86
2021/12/21 04:30:12;;;;;;;76.45;20.27;;;-2.60;99.90;;;;;;6125296;23;20147;-86
2021/12/21 04:32:46;;;;;;;76.43;18.13;;;-2.60;99.90;;;;;;6127411;23;20137;-85
2021/12/21 04:35:20;;;;;;;73.72;18.33;;;-2.60;99.90;;;;;;6126797;23;20133;-85
2021/12/21 04:37:55;;;;;;;77.25;17.05;;;-2.60;99.90;;;;;;6126337;23;20599;-85
2021/12/21 04:40:27;;;;;;;74.18;16.20;;;-2.60;99.90;;;;;;6125317;23;20154;-85
2021/12/21 04:43:03;;;;;;;80.35;15.65;;;-2.60;99.90;;;;;;6124262;23;20182;-84
2021/12/21 04:45:31;;;;;;;78.38;16.92;;;-2.60;99.90;;;;;;6125893;23;20161;-84
2021/12/21 04:47:57;;;;;;;79.20;18.45;;;-2.60;99.90;;;;;;6097763;23;20614;-85
2021/12/21 04:50:26;;;;;;;79.43;15.13;;;-2.50;99.90;;;;;;6124273;23;20481;-84
2021/12/21 04:52:52;;;;;;;76.75;15.63;;;-2.50;99.90;;;;;;6124129;23;20230;-84
2021/12/21 04:55:17;;;;;;;74.07;14.20;;;-2.50;99.90;;;;;;6124966;23;20492;-86
2021/12/21 04:57:49;;;;;;;82.83;17.53;;;-2.50;99.90;;;;;;6099327;23;20378;-85
2021/12/21 05:00:26;;;;;;;73.70;14.05;;;-2.50;99.90;;;;;;6124848;23;20205;-86
2021/12/21 05:02:52;;;;;;;78.68;16.00;;;-2.40;99.90;;;;;;6098236;23;20170;-84
2021/12/21 05:05:18;;;;;;;74.67;17.60;;;-2.30;99.90;;;;;;6098122;23;20524;-85
2021/12/21 05:07:54;;;;;;;85.32;18.92;;;-2.30;99.90;;;;;;6124548;23;20391;-84
2021/12/21 05:10:23;;;;;;;75.90;17.63;;;-2.30;99.90;;;;;;6124825;23;20180;-84
2021/12/21 05:12:51;;;;;;;77.90;18.02;;;-2.30;99.90;;;;;;6124156;23;20196;-85
2021/12/21 05:15:20;;;;;;;76.93;19.65;;;-2.30;99.90;;;;;;6098293;23;20151;-85
2021/12/21 05:17:48;;;;;;;76.75;18.60;;;-2.30;99.90;;;;;;6099250;23;20214;-85
2021/12/21 05:20:16;;;;;;;75.07;18.38;;;-2.20;99.90;;;;;;6124752;23;20153;-86
2021/12/21 05:22:47;;;;;;;75.47;19.90;;;-2.20;99.90;;;;;;6125321;23;20250;-84
2021/12/21 05:25:15;;;;;;;74.95;21.23;;;-2.20;99.90;;;;;;6125186;23;20146;-84
2021/12/21 05:27:41;;;;;;;78.13;19.05;;;-2.30;99.90;;;;;;6127473;23;20217;-86
2021/12/21 05:30:13;;;;;;;78.17;19.57;;;-2.30;99.90;;;;;;6101525;23;20147;-86
2021/12/21 05:32:40;;;;;;;77.43;21.75;;;-2.30;99.90;;;;;;6127523;23;20470;-86
2021/12/21 05:35:09;;;;;;;83.03;21.80;;;-2.30;99.90;;;;;;6102225;23;20146;-86
2021/12/21 05:37:51;;;;;;;80.32;24.20;;;-2.30;99.90;;;;;;6102702;23;20150;-86
2021/12/21 05:40:32;;;;;;;74.05;19.33;;;-2.30;99.90;;;;;;6102696;23;20154;-86
2021/12/21 05:43:16;;;;;;;75.05;17.98;;;-2.20;99.90;;;;;;6101717;23;20250;-85
2021/12/21 05:45:42;;;;;;;76.35;19.17;;;-2.20;99.90;;;;;;6100964;23;20195;-86
2021/12/21 05:48:08;;;;;;;86.75;21.85;;;-2.20;99.90;;;;;;6127198;23;20143;-86
2021/12/21 05:50:40;;;;;;;79.18;20.55;;;-2.20;99.90;;;;;;6101236;23;20150;-84
2021/12/21 05:53:20;;;;;;;76.43;19.88;;;-2.30;99.90;;;;;;6099740;23;20175;-86
2021/12/21 05:55:54;;;;;;;81.88;20.23;;;-2.30;99.90;;;;;;6126607;23;20147;-85
2021/12/21 05:58:35;;;;;;;83.88;19.40;;;-2.30;99.90;;;;;;6100511;23;20220;-85
2021/12/21 06:01:02;;;;;;;79.35;19.98;;;-2.30;99.90;;;;;;6126805;23;20135;-85
2021/12/21 06:03:31;;;;;;;82.03;21.85;;;-2.30;99.90;;;;;;6096902;23;20227;-86
2021/12/21 06:06:10;;;;;;;;;;;;;;;;;;;;;
2021/12/21 06:08:36;;;;;;;78.32;19.30;;;-2.30;99.90;;;;;;6127183;23;20226;-85
2021/12/21 06:11:14;;;;;;;78.40;24.33;;;-2.30;99.90;;;;;;6126042;23;20146;-85
2021/12/21 06:27:57;;;;;;;74.38;18.98;;;-2.40;99.90;;;;;;6135971;23;20161;-85
2021/12/21 06:30:25;;;;;;;75.18;14.70;;;-2.30;99.90;;;;;;6125508;23;20222;-84
2021/12/21 06:32:56;;;;;;;79.43;19.73;;;-2.30;99.90;;;;;;6098337;23;20146;-85
2021/12/21 06:35:28;;;;;;;80.40;17.85;;;-2.40;99.90;;;;;;6124645;23;20150;-84
2021/12/21 06:37:57;;;;;;;78.55;20.80;;;-2.40;99.90;;;;;;6099540;23;20155;-84
2021/12/21 06:40:23;;;;;;;75.95;17.15;;;-2.40;99.90;;;;;;6089451;22;20210;-87
2021/12/21 06:42:51;;;;;;;75.72;16.45;;;-2.40;99.90;;;;;;6122503;23;20193;-88
2021/12/21 06:45:44;;;;;;;79.57;19.98;;;-2.40;99.90;;;;;;6097222;23;20127;-88
2021/12/21 06:53:39;;;;;;;72.90;15.02;;;-2.50;99.90;;;;;;6121978;23;20477;-88
2021/12/21 06:56:06;;;;;;;75.63;17.92;;;-2.50;99.90;;;;;;6121918;23;20145;-87
2021/12/21 06:58:32;;;;;;;74.35;19.10;;;-2.50;99.90;;;;;;6121698;23;20143;-87
2021/12/21 07:00:59;;;;;;;73.78;17.45;;;-2.50;99.90;;;;;;6121676;23;20131;-87
2021/12/21 07:03:33;;;;;;;72.55;17.38;;;-2.50;99.90;;;;;;6096168;23;20249;-87
2021/12/21 07:06:05;;;;;;;74.40;17.98;;;-2.50;99.90;;;;;;6121661;23;20130;-87
2021/12/21 07:08:34;;;;;;;77.88;18.73;;;-2.50;99.90;;;;;;6097117;23;20154;-87
2021/12/21 07:11:17;;;;;;;77.82;19.45;;;-2.50;99.90;;;;;;6095804;23;20302;-87
2021/12/21 07:19:13;;;;;;;76.93;17.95;;;-2.60;99.90;;;;;;6123096;23;20138;-87
2021/12/21 07:21:39;;;;;;;81.55;15.55;;;-2.70;99.90;;;;;;6122910;23;20173;-87
2021/12/21 07:24:14;;;;;;;78.10;15.40;;;-2.50;99.90;;;;;;6122493;23;20170;-88
2021/12/21 07:26:46;;;;;;;76.88;13.98;;;-2.50;99.90;;;;;;6096832;23;20145;-88
2021/12/21 07:29:25;;;;;;;74.40;15.25;;;-2.60;99.90;;;;;;6097547;23;20147;-88
2021/12/21 07:31:53;;;;;;;73.47;15.55;;;-2.70;99.90;;;;;;6122892;23;20161;-87
2021/12/21 07:34:22;;;;;;;85.00;16.13;;;-2.70;99.90;;;;;;6096865;23;20174;-87
2021/12/21 07:37:09;;;;;;;78.28;19.00;;;-2.70;99.90;;;;;;6123816;23;20143;-88
2021/12/21 07:39:54;;;;;;;77.78;20.38;;;-2.80;99.90;;;;;;6122781;23;20158;-87
2021/12/21 07:42:27;;;;;;;78.93;16.08;;;-2.80;99.90;;;;;;6122606;23;20196;-88
2021/12/21 07:45:03;;;;;;;75.38;20.17;;;-2.80;99.90;;;;;;6122861;23;20238;-87
2021/12/21 07:47:28;;;;;;;79.47;17.40;;;-2.90;99.90;;;;;;6123403;23;20123;-88
2021/12/21 07:49:54;;;;;;;76.40;16.73;;;-2.90;99.90;;;;;;6097400;23;20157;-87
2021/12/21 07:52:20;;;;;;;80.93;18.90;;;-2.90;99.90;;;;;;6097606;23;20374;-88
2021/12/21 07:54:54;;;;;;;77.20;17.73;;;-2.90;99.90;;;;;;6097234;23;20451;-88
2021/12/21 07:57:55;;;;;;;76.25;20.95;;;-2.90;99.90;;;;;;6121371;23;20150;-88
2021/12/21 08:00:23;;;;;;;77.00;21.20;;;-2.90;99.90;;;;;;6033634;23;20149;-88
2021/12/21 08:02:49;;;;;;;77.60;17.92;;;-2.90;99.90;;;;;;6024072;23;20624;-87
2021/12/21 08:05:16;;;;;;;79.17;19.33;;;-2.90;99.90;;;;;;6122742;23;20211;-88
2021/12/21 08:07:53;;;;;;;76.57;20.02;;;-2.90;99.90;;;;;;6122504;23;20394;-88
2021/12/21 08:10:25;;;;;;;80.65;20.98;;;-2.80;99.90;;;;;;6096877;23;20142;-88
2021/12/21 08:12:56;;;;;;;77.50;21.63;;;-2.80;99.90;;;;;;6097295;23;20174;-87
2021/12/21 08:15:26;;;;;;;78.43;19.95;;;-2.80;99.90;;;;;;6123691;23;20131;-88
2021/12/21 08:17:54;;;;;;;75.18;17.45;;;-2.70;99.90;;;;;;6098423;23;20147;-88
2021/12/21 08:20:20;;;;;;;77.13;18.15;;;-2.70;99.90;;;;;;6123576;23;20472;-88
2021/12/21 08:22:49;;;;;;;80.17;20.40;;;-2.70;99.90;;;;;;6096179;23;20258;-88
2021/12/21 08:25:24;;;;;;;75.47;15.43;;;-2.70;99.90;;;;;;6096714;23;20503;-88
2021/12/21 08:27:51;;;;;;;79.93;21.42;;;-2.60;99.90;;;;;;6123168;23;20173;-88
2021/12/21 08:30:17;;;;;;;83.65;16.45;;;-2.50;99.90;;;;;;6096766;23;20238;-88
2021/12/21 08:32:46;;;;;;;78.60;18.98;;;-2.40;99.90;;;;;;6096638;23;20151;-88
2021/12/21 08:35:12;;;;;;;79.70;19.83;;;-2.40;99.90;;;;;;6122984;23;20149;-88
2021/12/21 08:37:59;;;;;;;75.85;20.45;;;-2.40;99.90;;;;;;6122678;23;20176;-89
2021/12/21 08:40:25;;;;;;;78.00;19.58;;;-2.30;99.90;;;;;;6122436;23;20260;-88
2021/12/21 08:42:56;;;;;;;79.77;20.07;;;-2.30;99.90;;;;;;6097415;23;20225;-88
2021/12/21 08:45:37;;;;;;;77.53;22.45;;;-2.10;99.90;;;;;;6123158;23;20373;-89
2021/12/21 08:48:29;;;;;;;78.35;21.33;;;-2.00;99.90;;;;;;6122625;23;20204;-89
2021/12/21 08:51:13;;;;;;;94.20;16.42;;;-1.90;99.90;;;;;;6123375;23;20123;-89
2021/12/21 08:53:42;;;;;;;75.45;20.13;;;-1.80;99.90;;;;;;6096448;23;20193;-89
2021/12/21 08:56:20;;;;;;;75.13;18.70;;;-1.70;99.90;;;;;;6122827;23;20507;-89
2021/12/21 08:59:04;;;;;;;77.88;23.77;;;-1.80;99.90;;;;;;6097973;23;20193;-89
2021/12/21 09:01:32;;;;;;;76.13;19.27;;;-1.70;99.90;;;;;;6096644;23;20170;-89
2021/12/21 09:04:45;;;;;;;77.28;17.15;;;-1.60;99.90;;;;;;6121527;23;20193;-89
2021/12/21 09:07:21;;;;;;;82.13;18.20;;;-1.50;99.90;;;;;;6121967;23;20228;-89
2021/12/21 09:10:24;;;;;;;77.95;18.67;;;-1.50;99.90;;;;;;6122728;23;20454;-89
2021/12/21 09:12:51;;;;;;;76.65;18.48;;;-1.50;99.90;;;;;;6093111;23;20154;-89
2021/12/21 09:15:33;;;;;;;79.45;19.63;;;-1.40;99.90;;;;;;6096616;23;20148;-89
2021/12/21 09:18:02;;;;;;;80.78;20.85;;;-1.40;99.90;;;;;;6122875;23;20131;-89
2021/12/21 09:20:30;;;;;;;77.82;23.98;;;-1.50;99.90;;;;;;6096971;23;20155;-89
2021/12/21 09:23:02;;;;;;;78.85;25.67;;;-1.30;99.90;;;;;;6108979;23;20237;-89
2021/12/21 09:25:37;;;;;;;76.68;22.45;;;-1.30;99.90;;;;;;6096390;23;20159;-89
2021/12/21 09:28:44;;;;;;;76.72;20.75;;;-1.30;99.90;;;;;;6097804;23;20142;-89
2021/12/21 09:35:16;;;;;;;78.22;20.05;;;-1.20;99.90;;;;;;6101761;23;20167;-89
2021/12/21 09:38:20;;;;;;;76.90;20.85;;;-1.10;99.90;;;;;;6033221;23;20161;-91
2021/12/21 09:41:47;;;;;;;77.38;21.23;;;-1.10;99.90;;;;;;5984828;23;20267;-89
2021/12/21 09:45:11;;;;;;;78.50;22.98;;;-1.00;99.90;;;;;;6099299;23;20224;-89
2021/12/21 09:48:04;;;;;;;76.43;21.08;;;-0.90;99.90;;;;;;6118860;23;20155;-89
2021/12/21 09:58:55;;;;;;;;;;;;;;;;;;;;;
2021/12/21 10:01:32;;;;;;;83.25;22.75;;;-0.70;99.90;;;;;;5980234;24;20256;-89
2021/12/21 10:18:03;;;;;;;79.13;30.08;;;-0.40;99.90;;;;;;6119345;23;20532;-89
2021/12/21 10:20:43;;;;;;;79.35;31.10;;;-0.40;99.90;;;;;;6096097;23;20147;-89
2021/12/21 10:23:37;;;;;;;83.22;35.00;;;-0.40;99.90;;;;;;6096646;23;20190;-90
2021/12/21 10:26:37;;;;;;;84.10;35.80;;;-0.30;99.90;;;;;;6097458;23;20147;-89
2021/12/21 10:30:24;;;;;;;;;;;;;;;;;;;;;
2021/12/21 10:35:11;;;;;;;86.40;39.30;;;-0.10;99.90;;;;;;6119578;23;20197;-89
2021/12/21 10:37:42;;;;;;;86.95;42.72;;;-0.10;99.90;;;;;;6109091;23;20213;-89
2021/12/21 10:55:18;;;;;;;86.07;35.45;;;0.20;99.90;;;;;;5948700;24;20182;-88
2021/12/21 10:58:16;;;;;;;82.38;35.15;;;0.20;99.90;;;;;;5973096;23;20625;-88
2021/12/21 11:04:59;;;;;;;82.75;30.55;;;0.40;99.90;;;;;;6020239;23;20273;-88
2021/12/21 11:10:58;;;;;;;;;;;;;;;;;;;;;
2021/12/21 11:13:38;;;;;;;85.65;44.35;;;0.60;99.90;;;;;;6032355;23;20251;-88
2021/12/21 11:16:34;;;;;;;87.93;48.10;;;0.70;99.90;;;;;;6009583;23;20188;-88
2021/12/21 11:19:36;;;;;;;88.22;45.75;;;0.60;99.90;;;;;;6033102;23;20184;-88
2021/12/21 11:25:22;;;;;;;84.15;31.98;;;0.80;99.90;;;;;;5976829;23;20150;-88
2021/12/21 11:31:21;;;;;;;84.03;28.58;;;0.90;99.90;;;;;;6182711;23;20146;-88
2021/12/21 11:34:24;;;;;;;82.15;30.52;;;0.90;99.90;;;;;;6125534;23;20173;-88
2021/12/21 11:37:30;;;;;;;84.28;23.00;;;0.80;99.90;;;;;;6064844;23;20581;-88
2021/12/21 11:40:56;;;;;;;;;;;;;;;;;;;;;
2021/12/21 11:44:16;;;;;;;79.65;18.42;;;0.80;99.90;;;;;;6099484;23;20265;-89
2021/12/21 11:46:50;;;;;;;75.47;16.85;;;0.90;99.90;;;;;;5994691;23;20667;-88
2021/12/21 11:50:38;;;;;;;78.15;16.40;;;0.90;99.90;;;;;;6094897;23;20163;-88
2021/12/21 11:53:31;;;;;;;80.57;17.77;;;1.00;99.90;;;;;;6126444;23;20216;-88
2021/12/21 11:56:34;;;;;;;78.85;22.00;;;1.00;99.90;;;;;;6010326;23;20145;-88
2021/12/21 11:59:20;;;;;;;75.32;18.65;;;1.00;99.90;;;;;;5925002;24;20154;-89
2021/12/21 12:02:03;;;;;;;82.40;19.48;;;1.00;99.90;;;;;;5949659;24;20178;-88
2021/12/21 12:04:38;;;;;;;85.65;22.42;;;1.10;99.90;;;;;;5926644;23;20507;-88
2021/12/21 12:07:27;;;;;;;78.43;24.75;;;1.10;99.90;;;;;;5956131;23;20148;-88
2021/12/21 12:20:56;;;;;;;75.88;16.92;;;1.20;99.90;;;;;;6102982;23;20292;-88
2021/12/21 12:23:23;;;;;;;81.65;19.13;;;1.20;99.90;;;;;;6120732;23;20194;-88
2021/12/21 12:26:16;;;;;;;76.13;17.83;;;1.20;99.90;;;;;;6097289;23;20203;-88
2021/12/21 12:29:17;;;;;;;80.07;17.98;;;1.30;99.90;;;;;;6122973;23;20226;-88
2021/12/21 12:32:11;;;;;;;76.28;18.90;;;1.30;99.90;;;;;;6096512;23;20485;-88
2021/12/21 12:34:57;;;;;;;75.60;19.13;;;1.40;99.90;;;;;;6097321;23;20167;-88
2021/12/21 12:38:18;;;;;;;79.00;19.38;;;1.40;99.90;;;;;;6097164;23;20229;-88
2021/12/21 12:44:42;;;;;;;75.43;18.65;;;1.50;99.90;;;;;;6102956;23;20193;-86
2021/12/21 12:47:31;;;;;;;;;;;;;;;;;;;;;
2021/12/21 12:50:58;;;;;;;82.35;20.23;;;1.40;99.90;;;;;;6126713;23;20225;-85
2021/12/21 12:54:27;;;;;;;;;;;;;;;;;;;;;
2021/12/21 12:57:36;;;;;;;76.55;17.92;;;1.50;99.90;;;;;;6037391;23;20212;-85
2021/12/21 13:03:57;;;;;;;;;;;;;;;;;;;;;
2021/12/21 13:07:13;;;;;;;76.03;21.50;;;1.60;99.90;;;;;;6128015;23;20182;-85
2021/12/21 13:27:39;;;;;;;82.70;22.05;;;1.60;99.90;;;;;;6097812;23;20183;-84
2021/12/21 13:30:48;;;;;;;76.47;16.15;;;1.70;99.90;;;;;;6072995;23;20155;-84
2021/12/21 13:33:50;;;;;;;;;;;;;;;;;;;;;
2021/12/21 13:36:56;;;;;;;76.90;12.38;;;1.80;99.90;;;;;;6126623;23;20202;-83
2021/12/21 13:39:41;;;;;;;76.28;11.00;;;1.80;99.90;;;;;;6013592;23;20240;-83
2021/12/21 13:43:06;;;;;;;72.63;9.93;;;1.80;99.90;;;;;;6102647;23;20564;-84
2021/12/21 13:46:12;;;;;;;72.65;10.15;;;1.70;99.90;;;;;;6070781;23;20178;-83
2021/12/21 13:56:06;;;;;;;74.13;11.43;;;1.80;99.90;;;;;;6121110;23;20225;-83
2021/12/21 14:16:05;;;;;;;72.88;9.23;;;2.10;99.90;;;;;;6069176;23;20230;-82
2021/12/21 14:19:00;;;;;;;;;;;;;;;;;;;;;
2021/12/21 14:22:12;;;;;;;73.05;7.95;;;2.10;99.90;;;;;;6092146;23;20234;-82
2021/12/21 14:24:55;;;;;;;70.35;10.00;;;2.10;99.90;;;;;;6068460;23;20225;-83
2021/12/21 14:34:52;;;;;;;73.00;9.30;;;2.10;99.90;;;;;;6105971;23;20174;-84
2021/12/21 14:37:57;;;;;;;77.35;9.32;;;2.10;99.90;;;;;;6097523;23;20154;-83
2021/12/21 14:41:36;;;;;;;72.40;8.82;;;2.00;99.90;;;;;;6070901;23;20147;-83
2021/12/21 14:44:33;;;;;;;71.43;9.75;;;2.00;99.90;;;;;;6049231;22;20275;-84
2021/12/21 14:51:29;;;;;;;78.60;10.20;;;2.10;99.90;;;;;;6115233;23;20173;-84
2021/12/21 14:59:12;;;;;;;71.65;12.65;;;2.10;99.90;;;;;;6153938;23;20207;-83
2021/12/21 15:02:22;;;;;;;;;;;;;;;;;;;;;
2021/12/21 15:05:11;;;;;;;70.45;9.40;;;1.90;99.90;;;;;;6129620;22;20171;-84
2021/12/21 15:08:06;;;;;;;73.10;9.90;;;1.80;99.90;;;;;;6125961;23;20143;-83
2021/12/21 15:11:42;;;;;;;;;;;;;;;;;;;;;
2021/12/21 15:18:24;;;;;;;;;;;;;;;;;;;;;
2021/12/21 15:21:36;;;;;;;82.32;11.00;;;1.50;99.90;;;;;;6126420;22;20221;-84
2021/12/21 15:24:18;;;;;;;;;;;;;;;;;;;;;
2021/12/21 15:27:34;;;;;;;69.80;9.30;;;1.40;99.90;;;;;;6125373;23;20672;-84
2021/12/21 15:30:35;;;;;;;74.75;9.95;;;1.30;99.90;;;;;;6158725;23;20535;-84
2021/12/21 15:36:19;;;;;;;74.55;10.68;;;1.10;99.90;;;;;;6038004;23;20677;-84
2021/12/21 15:42:36;;;;;;;73.18;12.50;;;1.00;99.90;;;;;;6112354;23;20192;-83
2021/12/21 15:45:19;;;;;;;74.38;11.35;;;0.90;99.90;;;;;;6126843;22;20163;-82
2021/12/21 15:48:11;;;;;;;72.70;11.57;;;0.80;99.90;;;;;;6229218;23;20147;-82
2021/12/21 15:50:49;;;;;;;72.88;10.23;;;0.70;99.90;;;;;;6230609;23;20150;-83
2021/12/21 15:53:37;;;;;;;78.95;10.70;;;0.60;99.90;;;;;;6233201;23;20496;-83
2021/12/21 15:56:35;;;;;;;77.70;12.98;;;0.50;99.90;;;;;;6232228;23;20206;-83
2021/12/21 15:59:13;;;;;;;77.45;11.05;;;0.40;99.90;;;;;;6230749;22;20169;-82
2021/12/21 16:02:27;;;;;;;77.40;11.98;;;0.40;99.90;;;;;;6230952;23;20241;-82
2021/12/21 16:05:17;;;;;;;72.90;10.35;;;0.40;99.90;;;;;;6231772;23;20182;-82
2021/12/21 16:07:50;;;;;;;78.63;10.80;;;0.30;99.90;;;;;;6129660;23;20158;-82
2021/12/21 16:10:31;;;;;;;76.00;11.10;;;0.20;99.90;;;;;;6231209;23;20161;-83
2021/12/21 16:17:02;;;;;;;;;;;;;;;;;;;;;
2021/12/21 16:19:47;;;;;;;72.35;9.75;;;0.10;99.90;;;;;;6127892;23;20183;-82
2021/12/21 16:22:40;;;;;;;75.30;11.73;;;0.10;99.90;;;;;;6234227;23;20164;-82
2021/12/21 16:25:33;;;;;;;;;;;;;;;;;;;;;
2021/12/21 16:28:03;;;;;;;73.00;11.45;;;0.00;99.90;;;;;;6128149;23;20190;-83
2021/12/21 16:30:55;;;;;;;74.63;11.38;;;-0.10;99.90;;;;;;6222238;23;20151;-82
2021/12/21 16:33:25;;;;;;;74.53;10.57;;;-0.10;99.90;;;;;;6230201;23;20178;-82
2021/12/21 16:35:53;;;;;;;72.43;11.77;;;0.00;99.90;;;;;;6229360;23;20483;-83
2021/12/21 16:38:22;;;;;;;78.32;13.85;;;-0.10;99.90;;;;;;6127043;23;20147;-83
2021/12/21 16:40:55;;;;;;;78.20;18.65;;;-0.10;99.90;;;;;;6228696;23;20173;-83
2021/12/21 16:43:29;;;;;;;74.22;15.07;;;-0.20;99.90;;;;;;6228462;23;20256;-82
2021/12/21 16:46:07;;;;;;;77.00;16.00;;;-0.20;99.90;;;;;;6229354;23;20145;-82
2021/12/21 16:48:38;;;;;;;75.60;13.50;;;-0.20;99.90;;;;;;6230156;23;20138;-82
2021/12/21 16:51:21;;;;;;;81.43;19.10;;;-0.20;99.90;;;;;;6127903;23;20131;-83
2021/12/21 16:53:51;;;;;;;75.03;15.98;;;-0.20;99.90;;;;;;6127401;23;20538;-83
2021/12/21 16:56:17;;;;;;;79.57;19.30;;;-0.20;99.90;;;;;;6126451;23;20488;-83
2021/12/21 16:58:42;;;;;;;79.25;19.15;;;-0.20;99.90;;;;;;6126326;23;20162;-82
2021/12/21 17:01:09;;;;;;;83.97;21.80;;;-0.30;99.90;;;;;;6126470;23;20482;-82
2021/12/21 17:03:38;;;;;;;77.03;21.58;;;-0.30;99.90;;;;;;6125801;23;20395;-83
2021/12/21 17:06:10;;;;;;;80.05;21.35;;;-0.30;99.90;;;;;;6229311;23;20154;-82
2021/12/21 17:08:42;;;;;;;82.03;25.58;;;-0.40;99.90;;;;;;6126703;23;20131;-83
2021/12/21 17:11:11;;;;;;;77.50;23.67;;;-0.40;99.90;;;;;;6229433;23;20238;-83
2021/12/21 17:13:36;;;;;;;80.05;24.42;;;-0.40;99.90;;;;;;6126520;23;20167;-82
2021/12/21 17:16:03;;;;;;;79.80;22.33;;;-0.40;99.90;;;;;;6228641;23;20169;-82
2021/12/21 17:18:29;;;;;;;78.80;25.05;;;-0.50;99.90;;;;;;6126800;23;20146;-82
2021/12/21 17:20:54;;;;;;;83.50;25.37;;;-0.50;99.90;;;;;;6227890;23;20146;-83
2021/12/21 17:23:23;;;;;;;82.87;26.07;;;-0.50;99.90;;;;;;6126165;23;20910;-81
2021/12/21 17:25:49;;;;;;;80.00;21.73;;;-0.50;99.90;;;;;;6125916;23;20193;-82